createdAt,value
2022-12-25T00:00:21.365Z,8.10
2022-12-25T00:02:49.764Z,9.55
2022-12-25T00:05:17.800Z,7.85
2022-12-25T00:07:46.065Z,8.50
2022-12-25T00:10:14.319Z,6.35
2022-12-25T00:12:43.740Z,6.10
2022-12-25T00:15:12.123Z,5.93
2022-12-25T00:17:40.094Z,8.35
2022-12-25T00:20:09.560Z,8.23
2022-12-25T00:22:37.619Z,5.13
2022-12-25T00:25:06.381Z,7.07
2022-12-25T00:27:37.697Z,6.20
2022-12-25T00:30:08.893Z,6.97
2022-12-25T00:32:37.675Z,8.07
2022-12-25T00:35:06.585Z,8.10
2022-12-25T00:37:34.552Z,6.55
2022-12-25T00:40:02.624Z,7.43
2022-12-25T00:42:30.559Z,8.40
2022-12-25T00:44:58.551Z,6.82
2022-12-25T00:47:28.096Z,6.03
2022-12-25T00:49:56.375Z,6.82
2022-12-25T00:52:24.380Z,6.75
2022-12-25T00:54:52.381Z,7.35
2022-12-25T00:57:20.445Z,6.75
2022-12-25T00:59:48.420Z,4.93
2022-12-25T01:02:25.405Z,8.25
2022-12-25T01:04:56.854Z,6.07
2022-12-25T01:07:27.756Z,5.53
2022-12-25T01:10:13.426Z,7.85
2022-12-25T01:12:44.157Z,5.57
2022-12-25T01:15:13.592Z,4.47
2022-12-25T01:17:42.100Z,4.95
2022-12-25T01:20:12.544Z,5.13
2022-12-25T01:22:40.777Z,6.97
2022-12-25T01:25:09.788Z,6.43
2022-12-25T01:27:37.897Z,4.78
2022-12-25T01:30:06.977Z,6.10
2022-12-25T01:32:35.021Z,4.43
2022-12-25T01:35:02.966Z,5.97
2022-12-25T01:37:35.019Z,6.97
2022-12-25T01:40:03.044Z,5.55
2022-12-25T01:42:31.135Z,7.57
2022-12-25T01:45:31.250Z,5.57
2022-12-25T01:47:59.735Z,6.88
2022-12-25T01:50:28.878Z,3.85
2022-12-25T01:52:59.182Z,7.22
2022-12-25T01:55:28.765Z,4.97
2022-12-25T01:57:57.301Z,6.50
2022-12-25T02:00:27.825Z,3.80
2022-12-25T02:02:56.120Z,6.15
2022-12-25T02:05:28.491Z,7.15
2022-12-25T02:10:27.489Z,5.30
2022-12-25T02:12:55.573Z,8.02
2022-12-25T02:15:27.540Z,7.38
2022-12-25T02:18:02.921Z,5.80
2022-12-25T02:21:15.202Z,6.07
2022-12-25T02:24:10.627Z,6.50
2022-12-25T02:27:24.341Z,5.15
2022-12-25T02:30:00.816Z,6.03
2022-12-25T02:32:33.792Z,6.47
2022-12-25T02:35:06.006Z,5.13
2022-12-25T02:40:12.546Z,4.53
2022-12-25T02:43:04.479Z,5.30
2022-12-25T02:45:54.430Z,4.03
2022-12-25T02:48:43.277Z,6.32
2022-12-25T02:51:33.623Z,5.72
2022-12-25T02:54:23.982Z,7.30
2022-12-25T02:57:12.709Z,4.32
2022-12-25T03:00:02.882Z,4.18
2022-12-25T03:02:48.240Z,5.13
2022-12-25T03:05:40.103Z,5.93
2022-12-25T03:08:14.672Z,5.47
2022-12-25T03:11:14.503Z,5.28
2022-12-25T03:13:44.520Z,4.07
2022-12-25T03:16:30.184Z,3.20
2022-12-25T03:19:22.108Z,4.85
2022-12-25T03:22:07.683Z,3.72
2022-12-25T03:24:53.457Z,5.45
2022-12-25T03:27:21.535Z,3.83
2022-12-25T03:30:07.255Z,5.50
2022-12-25T03:32:40.755Z,4.28
2022-12-25T03:35:23.946Z,4.88
2022-12-25T03:38:28.815Z,4.75
2022-12-25T03:41:22.590Z,5.22
2022-12-25T03:44:14.060Z,4.95
2022-12-25T03:47:06.078Z,3.53
2022-12-25T03:50:03.781Z,6.30
2022-12-25T03:52:53.253Z,5.82
2022-12-25T03:55:41.608Z,2.38
2022-12-25T03:58:36.382Z,4.15
2022-12-25T04:01:21.749Z,4.70
2022-12-25T04:04:07.031Z,3.25
2022-12-25T04:06:52.434Z,5.53
2022-12-25T04:09:39.263Z,2.58
2022-12-25T04:12:25.465Z,4.78
2022-12-25T04:15:11.311Z,3.25
2022-12-25T04:17:57.081Z,4.35
2022-12-25T04:20:42.681Z,5.13
2022-12-25T04:23:28.461Z,4.05
2022-12-25T04:26:17.879Z,4.25
2022-12-25T04:29:03.619Z,5.43
2022-12-25T04:31:57.188Z,3.17
2022-12-25T04:34:42.701Z,4.22
2022-12-25T04:37:10.685Z,3.55
2022-12-25T04:39:41.786Z,3.55
2022-12-25T04:42:11.259Z,3.40
2022-12-25T04:44:39.328Z,3.40
2022-12-25T04:47:11.219Z,5.15
2022-12-25T04:49:40.212Z,2.97
2022-12-25T04:52:08.217Z,4.20
2022-12-25T04:54:36.165Z,4.10
2022-12-25T04:57:04.148Z,4.78
2022-12-25T04:59:33.634Z,3.30
2022-12-25T05:02:01.723Z,2.97
2022-12-25T05:04:29.755Z,3.35
2022-12-25T05:06:57.774Z,3.67
2022-12-25T05:09:26.315Z,5.32
2022-12-25T05:11:54.324Z,3.40
2022-12-25T05:14:22.288Z,4.18
2022-12-25T05:16:52.991Z,3.35
2022-12-25T05:19:21.136Z,3.20
2022-12-25T05:21:49.118Z,4.45
2022-12-25T05:24:17.139Z,3.30
2022-12-25T05:26:45.166Z,2.97
2022-12-25T05:29:13.180Z,3.13
2022-12-25T05:31:43.854Z,4.80
2022-12-25T05:34:13.346Z,2.85
2022-12-25T05:36:41.329Z,2.53
2022-12-25T05:39:09.293Z,2.85
2022-12-25T05:41:37.350Z,3.45
2022-12-25T05:44:05.738Z,3.25
2022-12-25T05:46:33.886Z,3.10
2022-12-25T05:49:01.960Z,3.30
2022-12-25T05:51:31.765Z,4.53
2022-12-25T05:53:59.957Z,2.72
2022-12-25T05:56:28.470Z,3.92
2022-12-25T05:58:56.464Z,3.45
2022-12-25T06:01:26.608Z,2.42
2022-12-25T06:03:54.974Z,3.15
2022-12-25T06:06:22.955Z,2.00
2022-12-25T06:08:54.950Z,2.75
2022-12-25T06:11:23.143Z,3.38
2022-12-25T06:13:51.924Z,3.35
2022-12-25T06:16:20.177Z,4.65
2022-12-25T06:18:53.001Z,3.28
2022-12-25T06:21:21.069Z,3.15
2022-12-25T06:23:53.023Z,3.83
2022-12-25T06:26:21.415Z,2.20
2022-12-25T06:28:49.922Z,2.35
2022-12-25T06:31:20.206Z,2.60
2022-12-25T06:33:48.315Z,2.40
2022-12-25T06:36:18.485Z,3.28
2022-12-25T06:38:47.132Z,4.70
2022-12-25T06:41:18.847Z,1.95
2022-12-25T06:43:49.359Z,4.80
2022-12-25T06:46:18.090Z,2.08
2022-12-25T06:48:49.455Z,3.20
2022-12-25T06:51:18.264Z,2.83
2022-12-25T06:53:46.493Z,2.45
2022-12-25T06:56:18.323Z,3.58
2022-12-25T06:58:47.759Z,2.45
2022-12-25T07:01:20.213Z,3.00
2022-12-25T07:03:50.807Z,3.78
2022-12-25T07:06:18.912Z,5.00
2022-12-25T07:08:49.310Z,3.30
2022-12-25T07:11:18.707Z,2.92
2022-12-25T07:13:46.833Z,3.17
2022-12-25T07:16:17.506Z,2.63
2022-12-25T07:18:45.537Z,1.70
2022-12-25T07:21:15.461Z,4.65
2022-12-25T07:23:44.620Z,2.83
2022-12-25T07:26:13.498Z,2.13
2022-12-25T07:28:42.833Z,3.10
2022-12-25T07:31:13.081Z,1.73
2022-12-25T07:33:41.218Z,2.05
2022-12-25T07:36:12.549Z,2.75
2022-12-25T07:38:41.541Z,2.25
2022-12-25T07:41:10.562Z,1.92
2022-12-25T07:43:38.681Z,2.50
2022-12-25T07:46:08.285Z,3.95
2022-12-25T07:48:37.222Z,2.13
2022-12-25T07:51:09.194Z,2.28
2022-12-25T07:53:37.838Z,3.22
2022-12-25T07:56:08.168Z,2.53
2022-12-25T07:58:36.392Z,1.85
2022-12-25T08:01:06.853Z,2.67
2022-12-25T08:03:36.979Z,1.95
2022-12-25T08:06:07.561Z,2.60
2022-12-25T08:08:36.315Z,1.65
2022-12-25T08:11:05.183Z,4.22
2022-12-25T08:13:34.683Z,2.63
2022-12-25T08:16:04.644Z,2.88
2022-12-25T08:18:33.523Z,1.60
2022-12-25T08:21:05.550Z,1.90
2022-12-25T08:23:35.774Z,1.75
2022-12-25T08:26:05.947Z,3.97
2022-12-25T08:28:35.100Z,4.00
2022-12-25T08:31:08.276Z,2.88
2022-12-25T08:33:36.844Z,2.67
2022-12-25T08:36:09.196Z,2.63
2022-12-25T08:38:37.891Z,2.60
2022-12-25T08:41:06.116Z,2.25
2022-12-25T08:43:34.138Z,2.90
2022-12-25T08:46:02.161Z,3.97
2022-12-25T08:48:30.213Z,1.98
2022-12-25T08:50:58.584Z,1.73
2022-12-25T08:53:28.059Z,1.77
2022-12-25T08:56:00.186Z,2.70
2022-12-25T09:00:56.841Z,2.92
2022-12-25T09:03:25.288Z,5.18
2022-12-25T09:05:56.226Z,2.00
2022-12-25T09:08:24.317Z,3.92
2022-12-25T09:10:53.657Z,2.97
2022-12-25T09:13:21.616Z,1.92
2022-12-25T09:15:49.654Z,1.83
2022-12-25T09:18:17.710Z,3.13
2022-12-25T09:20:45.642Z,2.47
2022-12-25T09:23:14.463Z,1.70
2022-12-25T09:25:42.695Z,2.55
2022-12-25T09:28:12.065Z,2.65
2022-12-25T09:30:40.093Z,2.85
2022-12-25T09:33:09.079Z,1.85
2022-12-25T09:35:39.508Z,2.03
2022-12-25T09:38:07.804Z,1.88
2022-12-25T09:40:35.865Z,2.85
2022-12-25T09:43:04.875Z,3.15
2022-12-25T09:45:37.393Z,3.53
2022-12-25T09:48:06.090Z,2.30
2022-12-25T09:50:43.653Z,2.35
2022-12-25T09:53:17.753Z,1.77
2022-12-25T09:55:54.310Z,2.58
2022-12-25T09:58:22.372Z,1.38
2022-12-25T10:00:57.008Z,3.42
2022-12-25T10:03:39.365Z,4.00
2022-12-25T10:06:21.932Z,1.50
2022-12-25T10:09:24.088Z,4.13
2022-12-25T10:12:01.604Z,2.53
2022-12-25T10:14:39.823Z,1.30
2022-12-25T10:17:25.221Z,2.28
2022-12-25T10:20:04.335Z,2.40
2022-12-25T10:22:38.983Z,2.67
2022-12-25T10:25:08.063Z,1.70
2022-12-25T10:27:39.992Z,3.25
2022-12-25T10:32:46.671Z,2.10
2022-12-25T10:35:16.493Z,5.95
2022-12-25T10:37:47.269Z,2.70
2022-12-25T10:40:29.720Z,2.33
2022-12-25T10:45:30.467Z,2.33
2022-12-25T10:48:07.771Z,2.22
2022-12-25T10:50:43.436Z,2.38
2022-12-25T10:53:19.976Z,1.83
2022-12-25T10:55:59.487Z,2.20
2022-12-25T10:58:28.207Z,1.85
2022-12-25T11:01:00.144Z,2.58
2022-12-25T11:03:32.073Z,2.33
2022-12-25T11:06:01.086Z,2.30
2022-12-25T11:08:31.319Z,2.47
2022-12-25T11:11:06.320Z,2.42
2022-12-25T11:13:40.583Z,2.47
2022-12-25T11:16:11.801Z,3.45
2022-12-25T11:18:49.235Z,1.63
2022-12-25T11:21:19.775Z,2.33
2022-12-25T11:23:51.101Z,2.85
2022-12-25T11:26:19.867Z,2.60
2022-12-25T11:28:51.361Z,3.10
2022-12-25T11:31:22.076Z,2.45
2022-12-25T11:33:56.111Z,2.08
2022-12-25T11:36:31.114Z,1.80
2022-12-25T11:39:02.873Z,1.50
2022-12-25T11:41:35.115Z,2.92
2022-12-25T11:44:15.924Z,4.45
2022-12-25T11:46:50.351Z,2.97
2022-12-25T11:49:22.269Z,1.98
2022-12-25T11:51:54.812Z,2.97
2022-12-25T11:54:29.139Z,2.05
2022-12-25T11:57:01.577Z,2.75
2022-12-25T11:59:35.633Z,1.60
2022-12-25T12:02:16.293Z,1.35
2022-12-25T12:04:50.074Z,2.10
2022-12-25T12:07:23.106Z,2.30
2022-12-25T12:10:01.669Z,2.42
2022-12-25T12:12:36.237Z,1.73
2022-12-25T12:15:13.662Z,1.50
2022-12-25T12:17:41.688Z,2.38
2022-12-25T12:20:27.749Z,1.77
2022-12-25T12:22:56.054Z,1.50
2022-12-25T12:25:24.228Z,1.50
2022-12-25T12:27:59.813Z,2.80
2022-12-25T12:30:34.782Z,1.58
2022-12-25T12:33:04.863Z,1.98
2022-12-25T12:35:36.417Z,1.80
2022-12-25T12:38:07.877Z,2.80
2022-12-25T12:40:39.716Z,2.63
2022-12-25T12:43:24.944Z,2.10
2022-12-25T12:45:58.635Z,1.73
2022-12-25T12:48:29.701Z,2.65
2022-12-25T12:51:07.941Z,1.92
2022-12-25T12:53:38.192Z,2.30
2022-12-25T12:56:15.317Z,2.08
2022-12-25T12:58:50.781Z,2.63
2022-12-25T13:01:37.841Z,3.70
2022-12-25T13:04:29.989Z,1.70
2022-12-25T13:07:09.728Z,1.70
2022-12-25T13:09:50.517Z,2.90
2022-12-25T13:12:19.908Z,3.17
2022-12-25T13:14:49.860Z,1.70
2022-12-25T13:17:21.287Z,2.35
2022-12-25T13:19:53.819Z,2.10
2022-12-25T13:22:31.549Z,1.48
2022-12-25T13:25:01.233Z,1.65
2022-12-25T13:27:30.907Z,1.88
2022-12-25T13:29:59.329Z,2.50
2022-12-25T13:32:29.733Z,1.70
2022-12-25T13:34:58.256Z,2.17
2022-12-25T13:37:31.223Z,2.20
2022-12-25T13:40:02.095Z,3.25
2022-12-25T13:42:36.288Z,2.47
2022-12-25T13:45:07.220Z,2.28
2022-12-25T13:47:38.062Z,3.45
2022-12-25T13:50:16.173Z,1.65
2022-12-25T13:52:45.616Z,2.08
2022-12-25T13:55:16.151Z,2.20
2022-12-25T13:57:51.039Z,3.28
2022-12-25T14:00:21.567Z,2.17
2022-12-25T14:02:50.930Z,2.67
2022-12-25T14:05:27.583Z,3.67
2022-12-25T14:07:59.061Z,2.80
2022-12-25T14:10:33.745Z,2.15
2022-12-25T14:13:05.763Z,2.65
2022-12-25T14:15:36.409Z,3.75
2022-12-25T14:18:04.682Z,2.38
2022-12-25T14:20:40.311Z,3.03
2022-12-25T14:23:16.641Z,2.35
2022-12-25T14:25:46.766Z,2.78
2022-12-25T14:28:20.739Z,1.92
2022-12-25T14:30:48.841Z,1.80
2022-12-25T14:33:20.694Z,2.25
2022-12-25T14:35:49.619Z,2.03
2022-12-25T14:38:25.370Z,2.10
2022-12-25T14:41:00.702Z,1.70
2022-12-25T14:43:31.104Z,2.75
2022-12-25T14:46:01.150Z,2.20
2022-12-25T14:48:31.377Z,4.15
2022-12-25T14:51:02.709Z,2.15
2022-12-25T14:53:37.701Z,3.00
2022-12-25T14:56:07.827Z,2.63
2022-12-25T14:58:41.998Z,2.38
2022-12-25T15:01:22.146Z,2.25
2022-12-25T15:03:50.562Z,2.53
2022-12-25T15:06:20.604Z,2.30
2022-12-25T15:08:58.425Z,2.58
2022-12-25T15:11:26.845Z,2.20
2022-12-25T15:13:55.108Z,2.20
2022-12-25T15:16:26.042Z,2.35
2022-12-25T15:18:55.606Z,2.30
2022-12-25T15:21:27.722Z,3.75
2022-12-25T15:24:01.349Z,2.08
2022-12-25T15:26:31.188Z,3.47
2022-12-25T15:28:59.261Z,2.22
2022-12-25T15:31:29.283Z,2.53
2022-12-25T15:33:59.150Z,2.50
2022-12-25T15:36:27.562Z,2.45
2022-12-25T15:38:57.866Z,2.42
2022-12-25T15:41:56.017Z,2.28
2022-12-25T15:44:24.264Z,3.25
2022-12-25T15:46:52.576Z,2.40
2022-12-25T15:49:20.642Z,3.03
2022-12-25T15:51:48.806Z,3.72
2022-12-25T15:54:16.945Z,2.63
2022-12-25T15:56:49.164Z,2.53
2022-12-25T16:01:49.222Z,3.33
2022-12-25T16:04:17.297Z,3.45
2022-12-25T16:06:45.351Z,2.92
2022-12-25T16:09:13.853Z,2.90
2022-12-25T16:11:42.230Z,2.75
2022-12-25T16:14:11.711Z,2.72
2022-12-25T16:16:40.372Z,3.03
2022-12-25T16:19:09.264Z,2.97
2022-12-25T16:21:41.477Z,2.97
2022-12-25T16:26:37.530Z,2.90
2022-12-25T16:29:07.561Z,2.83
2022-12-25T16:31:37.762Z,3.33
2022-12-25T16:34:07.400Z,2.88
2022-12-25T16:36:35.651Z,2.72
2022-12-25T16:39:04.387Z,3.53
2022-12-25T16:41:32.558Z,3.08
2022-12-25T16:44:00.555Z,3.15
2022-12-25T16:46:28.609Z,2.60
2022-12-25T16:48:58.077Z,3.30
2022-12-25T16:51:26.065Z,3.20
2022-12-25T16:53:54.869Z,3.20
2022-12-25T16:56:25.466Z,3.03
2022-12-25T16:58:53.896Z,2.88
2022-12-25T17:01:23.681Z,3.15
2022-12-25T17:03:54.014Z,3.33
2022-12-25T17:06:25.881Z,4.82
2022-12-25T17:08:56.849Z,4.25
2022-12-25T17:11:29.543Z,3.40
2022-12-25T17:13:59.850Z,3.28
2022-12-25T17:16:30.270Z,3.60
2022-12-25T17:19:01.394Z,3.50
2022-12-25T17:21:32.721Z,4.22
2022-12-25T17:24:03.558Z,3.85
2022-12-25T17:26:32.960Z,4.35
2022-12-25T17:29:00.947Z,3.35
2022-12-25T17:31:29.747Z,3.53
2022-12-25T17:33:57.856Z,3.90
2022-12-25T17:36:25.892Z,3.78
2022-12-25T17:38:55.221Z,3.88
2022-12-25T17:41:23.215Z,3.33
2022-12-25T17:43:51.259Z,4.88
2022-12-25T17:46:21.386Z,3.97
2022-12-25T17:48:50.464Z,3.70
2022-12-25T17:51:22.306Z,4.28
2022-12-25T17:53:52.751Z,4.95
2022-12-25T17:56:23.895Z,3.60
2022-12-25T17:58:57.497Z,5.47
2022-12-25T18:01:26.980Z,4.35
2022-12-25T18:03:55.883Z,4.47
2022-12-25T18:06:28.332Z,4.20
2022-12-25T18:08:57.391Z,4.07
2022-12-25T18:11:32.687Z,4.10
2022-12-25T18:14:03.070Z,4.15
2022-12-25T18:16:33.435Z,3.97
2022-12-25T18:19:01.980Z,5.07
2022-12-25T18:21:30.589Z,4.22
2022-12-25T18:23:59.107Z,3.85
2022-12-25T18:26:28.954Z,4.20
2022-12-25T18:28:57.515Z,4.05
2022-12-25T18:31:27.816Z,4.10
2022-12-25T18:33:55.925Z,5.68
2022-12-25T18:36:25.886Z,3.67
2022-12-25T18:38:55.169Z,4.47
2022-12-25T18:41:23.830Z,4.25
2022-12-25T18:43:55.682Z,4.28
2022-12-25T18:46:26.341Z,3.83
2022-12-25T18:48:54.969Z,3.97
2022-12-25T18:51:23.424Z,3.97
2022-12-25T18:53:52.021Z,4.18
2022-12-25T18:56:20.109Z,4.20
2022-12-25T18:58:48.642Z,4.53
2022-12-25T19:01:20.399Z,4.07
2022-12-25T19:03:49.317Z,4.00
2022-12-25T19:06:18.818Z,3.75
2022-12-25T19:08:47.171Z,4.45
2022-12-25T19:11:15.257Z,4.63
2022-12-25T19:13:43.603Z,5.00
2022-12-25T19:16:12.058Z,4.18
2022-12-25T19:18:41.874Z,4.30
2022-12-25T19:21:11.017Z,4.50
2022-12-25T19:23:39.534Z,4.18
2022-12-25T19:26:09.671Z,4.35
2022-12-25T19:28:39.231Z,4.68
2022-12-25T19:31:09.349Z,7.15
2022-12-25T19:33:42.900Z,5.32
2022-12-25T19:36:14.141Z,5.85
2022-12-25T19:38:44.908Z,6.68
2022-12-25T19:41:15.403Z,5.93
2022-12-25T19:43:45.612Z,5.22
2022-12-25T19:46:17.999Z,6.65
2022-12-25T19:48:47.983Z,6.05
2022-12-25T19:51:17.639Z,7.32
2022-12-25T19:53:46.739Z,5.38
2022-12-25T19:56:15.284Z,5.18
2022-12-25T19:58:43.363Z,5.30
2022-12-25T20:01:14.916Z,5.40
2022-12-25T20:03:46.445Z,5.38
2022-12-25T20:06:19.757Z,7.13
2022-12-25T20:08:48.585Z,6.53
2022-12-25T20:11:16.983Z,5.57
2022-12-25T20:13:45.010Z,5.72
2022-12-25T20:16:13.047Z,5.60
2022-12-25T20:18:41.828Z,7.70
2022-12-25T20:21:14.073Z,5.63
2022-12-25T20:26:13.413Z,6.93
2022-12-25T20:28:44.203Z,6.07
2022-12-25T20:31:16.035Z,7.47
2022-12-25T20:33:44.177Z,6.25
2022-12-25T20:36:12.841Z,5.18
2022-12-25T20:38:41.214Z,6.22
2022-12-25T20:41:29.468Z,5.47
2022-12-25T20:43:58.357Z,5.97
2022-12-25T20:46:27.059Z,6.70
2022-12-25T20:48:55.347Z,7.15
2022-12-25T20:51:24.793Z,6.63
2022-12-25T20:53:54.025Z,6.07
2022-12-25T20:56:25.205Z,6.60
2022-12-25T20:58:57.644Z,7.03
2022-12-25T21:01:26.777Z,7.32
2022-12-25T21:03:58.033Z,6.45
2022-12-25T21:06:26.507Z,6.93
2022-12-25T21:08:54.649Z,6.78
2022-12-25T21:11:24.419Z,6.80
2022-12-25T21:13:52.587Z,7.97
2022-12-25T21:16:22.714Z,6.82
2022-12-25T21:18:52.247Z,6.63
2022-12-25T21:21:21.839Z,7.53
2022-12-25T21:23:49.914Z,7.65
2022-12-25T21:26:19.723Z,7.18
2022-12-25T21:28:50.523Z,7.38
2022-12-25T21:31:19.526Z,7.45
2022-12-25T21:33:53.014Z,6.78
2022-12-25T21:36:23.923Z,7.93
2022-12-25T21:38:57.190Z,5.82
2022-12-25T21:41:26.594Z,6.32
2022-12-25T21:43:56.970Z,6.75
2022-12-25T21:46:26.037Z,6.95
2022-12-25T21:48:54.957Z,6.47
2022-12-25T21:51:43.085Z,6.32
2022-12-25T21:54:11.846Z,6.63
2022-12-25T21:56:44.529Z,5.93
2022-12-25T21:59:16.538Z,6.95
2022-12-25T22:01:45.603Z,5.30
2022-12-25T22:04:16.479Z,5.82
2022-12-25T22:07:02.181Z,5.65
2022-12-25T22:09:30.333Z,7.15
2022-12-25T22:12:15.977Z,7.03
2022-12-25T22:14:59.229Z,5.38
2022-12-25T22:17:47.488Z,5.28
2022-12-25T22:20:17.383Z,5.45
2022-12-25T22:22:45.682Z,5.43
2022-12-25T22:25:14.685Z,6.30
2022-12-25T22:27:44.145Z,5.63
2022-12-25T22:30:15.529Z,5.97
2022-12-25T22:32:44.028Z,5.57
2022-12-25T22:35:13.250Z,5.15
2022-12-25T22:37:42.473Z,4.95
2022-12-25T22:40:12.573Z,4.43
2022-12-25T22:42:43.366Z,5.35
2022-12-25T22:45:13.608Z,5.55
2022-12-25T22:47:41.656Z,5.45
2022-12-25T22:50:11.041Z,4.88
2022-12-25T22:52:39.443Z,4.70
2022-12-25T22:55:09.605Z,4.72
2022-12-25T22:57:37.736Z,4.40
2022-12-25T23:00:08.933Z,4.63
2022-12-25T23:02:38.611Z,6.07
2022-12-25T23:05:07.557Z,4.40
2022-12-25T23:07:35.664Z,5.50
2022-12-25T23:10:03.636Z,4.47
2022-12-25T23:12:48.754Z,4.47
2022-12-25T23:15:17.091Z,3.92
2022-12-25T23:18:00.363Z,4.25
2022-12-25T23:20:46.087Z,4.53
2022-12-25T23:23:33.711Z,4.53
2022-12-25T23:26:10.994Z,4.72
2022-12-25T23:28:58.034Z,4.00
2022-12-25T23:31:29.974Z,4.28
2022-12-25T23:33:59.694Z,4.28
2022-12-25T23:36:29.790Z,4.38
2022-12-25T23:39:03.101Z,4.95
2022-12-25T23:41:35.022Z,4.03
2022-12-25T23:44:03.014Z,3.67
2022-12-25T23:46:31.068Z,3.97
2022-12-25T23:49:00.480Z,4.05
2022-12-25T23:51:28.623Z,3.80
2022-12-25T23:53:56.699Z,4.72
2022-12-25T23:56:25.531Z,4.05
2022-12-25T23:58:53.493Z,4.10
